createdAt,value
2018-07-08T11:01:26.811Z,16.79
2018-07-08T11:20:19.454Z,12.89
2018-07-08T11:21:26.561Z,15.00
2018-07-08T11:22:26.535Z,14.60
2018-07-08T11:23:26.525Z,16.10
2018-07-08T11:24:01.483Z,12.50
2018-07-08T11:25:01.455Z,13.00
2018-07-08T11:26:24.737Z,12.89
2018-07-08T11:27:24.702Z,13.39
2018-07-08T11:28:24.679Z,12.19
2018-07-08T11:29:24.663Z,13.50
2018-07-08T11:30:24.640Z,14.39
2018-07-08T11:31:24.618Z,13.19
2018-07-08T11:32:24.598Z,14.60
2018-07-08T11:33:24.588Z,13.30
2018-07-08T11:34:24.587Z,15.00
2018-07-08T11:35:24.524Z,14.80
2018-07-08T11:36:24.497Z,8.60
2018-07-08T11:37:24.472Z,8.89
2018-07-08T11:38:24.449Z,7.90
2018-07-08T11:39:24.433Z,12.80
2018-07-08T11:40:24.411Z,10.50
2018-07-08T11:41:24.390Z,12.00
2018-07-08T11:42:24.363Z,10.69
2018-07-08T11:43:24.337Z,11.69
2018-07-08T11:44:24.303Z,12.00
2018-07-08T11:45:24.275Z,10.39
2018-07-08T11:46:24.267Z,9.60
2018-07-08T11:47:24.208Z,10.00
2018-07-08T11:48:24.173Z,9.00
2018-07-08T11:49:24.136Z,9.19
2018-07-08T11:50:24.098Z,9.39
2018-07-08T11:51:24.071Z,11.10
2018-07-08T11:52:24.030Z,8.30
2018-07-08T11:53:23.982Z,9.89
2018-07-08T11:54:23.946Z,10.69
2018-07-08T11:55:23.965Z,9.69
2018-07-08T11:56:23.871Z,8.50
2018-07-08T11:57:23.832Z,8.19
2018-07-08T11:58:23.796Z,9.60
2018-07-08T11:59:01.945Z,8.80
2018-07-08T12:00:01.916Z,9.10
2018-07-08T12:00:44.339Z,8.00
2018-07-08T12:01:38.307Z,10.00
2018-07-08T12:02:38.081Z,9.39
2018-07-08T12:03:38.073Z,8.60
2018-07-08T12:04:29.518Z,7.00
2018-07-08T12:04:59.524Z,7.09
2018-07-08T12:05:29.493Z,8.89
2018-07-08T12:05:59.479Z,8.50
2018-07-08T12:06:29.503Z,8.39
2018-07-08T12:06:59.449Z,8.60
2018-07-08T12:07:29.431Z,8.60
2018-07-08T12:07:59.673Z,8.30
2018-07-08T12:08:29.411Z,8.89
2018-07-08T12:08:59.428Z,9.80
2018-07-08T12:09:29.374Z,8.89
2018-07-08T12:09:59.359Z,8.19
2018-07-08T12:10:29.346Z,7.80
2018-07-08T12:10:59.332Z,7.80
2018-07-08T12:11:29.316Z,8.50
2018-07-08T12:11:59.301Z,8.10
2018-07-08T12:12:29.289Z,7.90
2018-07-08T12:12:59.273Z,8.50
2018-07-08T12:13:29.259Z,7.90
2018-07-08T12:13:59.244Z,6.90
2018-07-08T12:14:29.289Z,7.40
2018-07-08T12:14:59.220Z,7.59
2018-07-08T12:15:29.206Z,8.00
2018-07-08T12:15:59.194Z,7.80
2018-07-08T12:16:29.183Z,10.39
2018-07-08T12:16:59.167Z,8.69
2018-07-08T12:17:29.154Z,7.69
2018-07-08T12:18:07.106Z,7.30
2018-07-08T12:18:47.471Z,6.90
2018-07-08T12:19:47.258Z,7.30
2018-07-08T12:20:19.582Z,9.19
2018-07-08T12:21:33.161Z,7.69
2018-07-08T12:24:02.204Z,11.10
2018-07-08T12:25:02.200Z,9.80
2018-07-08T12:26:02.187Z,7.90
2018-07-08T12:27:02.169Z,8.30
2018-07-08T12:28:02.154Z,9.19
2018-07-08T12:29:02.133Z,8.89
2018-07-08T12:30:02.114Z,7.30
2018-07-08T12:31:02.093Z,5.59
2018-07-08T12:32:02.070Z,8.50
2018-07-08T12:33:02.045Z,10.00
2018-07-08T12:34:02.019Z,6.50
2018-07-08T12:35:01.993Z,6.19
2018-07-08T12:36:01.968Z,6.90
2018-07-08T12:37:01.933Z,6.00
2018-07-08T12:38:01.898Z,5.80
2018-07-08T12:39:01.871Z,5.80
2018-07-08T12:40:01.836Z,6.90
2018-07-08T12:41:01.801Z,7.59
2018-07-08T12:42:01.774Z,8.19
2018-07-08T12:43:01.743Z,6.00
2018-07-08T12:44:01.724Z,5.40
2018-07-08T12:45:01.687Z,6.90
2018-07-08T12:46:01.655Z,5.69
2018-07-08T12:47:01.653Z,7.69
2018-07-08T12:48:01.603Z,5.40
2018-07-08T12:49:01.573Z,6.40
2018-07-08T12:50:01.545Z,5.30
2018-07-08T12:51:01.512Z,5.80
2018-07-08T12:52:01.483Z,6.40
2018-07-08T12:53:01.505Z,5.09
2018-07-08T12:54:01.429Z,5.69
2018-07-08T12:55:01.405Z,6.09
2018-07-08T12:56:01.375Z,6.00
2018-07-08T12:57:01.346Z,6.00
2018-07-08T12:58:01.317Z,5.30
2018-07-08T12:59:01.314Z,5.19
2018-07-08T13:00:01.263Z,7.00
2018-07-08T13:01:01.230Z,5.30
2018-07-08T13:02:01.208Z,4.90
2018-07-08T13:03:01.175Z,5.19
2018-07-08T13:04:01.146Z,5.00
2018-07-08T13:05:01.117Z,5.50
2018-07-08T13:06:01.088Z,5.50
2018-07-08T13:07:01.058Z,6.09
2018-07-08T13:08:01.031Z,5.00
2018-07-08T13:09:01.002Z,4.30
2018-07-08T13:10:00.970Z,5.80
2018-07-08T13:11:00.947Z,4.40
2018-07-08T13:12:00.917Z,4.69
2018-07-08T13:13:00.890Z,5.80
2018-07-08T13:14:00.865Z,5.09
2018-07-08T13:15:00.841Z,4.50
2018-07-08T13:16:00.815Z,5.00
2018-07-08T13:17:00.787Z,5.80
2018-07-08T13:18:00.768Z,4.40
2018-07-08T13:19:00.734Z,7.90
2018-07-08T17:29:32.221Z,12.30
2018-07-08T17:30:32.135Z,11.00
2018-07-08T17:31:32.068Z,6.30
2018-07-08T17:32:31.992Z,8.00
2018-07-08T17:33:32.029Z,8.80
2018-07-08T17:34:31.803Z,6.50
2018-07-08T17:35:31.699Z,7.19
2018-07-08T17:36:31.595Z,6.59
2018-07-08T17:37:31.484Z,5.30
2018-07-08T17:38:31.372Z,5.19
2018-07-08T17:39:31.261Z,4.69
2018-07-08T17:40:31.147Z,4.50
2018-07-08T17:41:31.029Z,4.80
2018-07-08T17:42:30.912Z,5.69
2018-07-08T17:43:30.791Z,5.59
2018-07-08T17:44:30.667Z,4.40
2018-07-08T17:45:30.547Z,4.00
2018-07-08T17:46:30.500Z,3.90
2018-07-08T17:47:30.285Z,3.79
2018-07-08T17:48:30.159Z,4.30
2018-07-08T17:49:30.030Z,5.80
2018-07-08T17:50:29.895Z,4.40
